Time;durP1;ratioP1;P1;durP2;ratioP2;P2;SDS_P1;SDS_P2;PMS_P1;PMS_P2;Temp;Humidity;BMP_temperature;BMP_pressure;BME280_temperature;BME280_humidity;BME280_pressure;Samples;Min_cycle;Max_cycle;Signal;HPM_P1;HPM_P2
2022/06/03 00:02:14;;;;;;;27.03;25.63;;;8.90;99.90;;;;;;5064217;28;20515;-82
2022/06/03 00:05:00;;;;;;;42.20;40.20;;;8.90;99.90;;;;;;5052950;28;20505;-84
2022/06/03 00:07:38;;;;;;;58.03;55.47;;;8.80;99.90;;;;;;5063969;28;21058;-83
2022/06/03 00:10:23;;;;;;;89.17;85.50;;;8.70;99.90;;;;;;5063973;28;20462;-84
2022/06/03 00:12:54;;;;;;;72.43;69.53;;;8.70;99.90;;;;;;5064411;28;20531;-84
2022/06/03 00:16:01;;;;;;;126.80;122.17;;;8.70;99.90;;;;;;5064666;28;20428;-84
2022/06/03 00:18:57;;;;;;;208.17;201.10;;;8.60;99.90;;;;;;4962056;28;20926;-83
2022/06/03 00:21:47;;;;;;;215.13;207.67;;;8.60;99.90;;;;;;5058117;28;20494;-83
2022/06/03 00:24:30;;;;;;;206.87;199.77;;;8.60;99.90;;;;;;5062753;28;20511;-83
2022/06/03 00:27:33;;;;;;;187.90;181.43;;;8.50;99.90;;;;;;5062411;28;20531;-84
2022/06/03 00:30:18;;;;;;;199.10;192.20;;;8.50;99.90;;;;;;5061763;28;20455;-83
2022/06/03 00:33:04;;;;;;;118.47;113.93;;;8.40;99.90;;;;;;5063177;28;20439;-83
2022/06/03 00:35:45;;;;;;;116.07;111.80;;;8.30;99.90;;;;;;5066929;28;20530;-83
2022/06/03 00:38:36;;;;;;;112.90;108.70;;;8.40;99.90;;;;;;5065096;28;20483;-84
2022/06/03 00:41:12;;;;;;;91.73;88.17;;;8.40;99.90;;;;;;5066367;28;20542;-83
2022/06/03 00:43:52;;;;;;;120.47;116.23;;;8.30;99.90;;;;;;5066823;28;20486;-83
2022/06/03 00:46:35;;;;;;;112.03;107.60;;;8.40;99.90;;;;;;5067281;28;20451;-84
2022/06/03 00:49:27;;;;;;;109.70;105.67;;;8.50;99.90;;;;;;5066699;28;20435;-84
2022/06/03 00:52:23;;;;;;;69.97;67.27;;;8.80;99.90;;;;;;5066593;28;20453;-83
2022/06/03 00:55:09;;;;;;;27.37;25.93;;;9.20;99.90;;;;;;5066974;28;20455;-83
2022/06/03 00:57:59;;;;;;;15.80;14.70;;;9.20;99.90;;;;;;5067231;28;20467;-83
2022/06/03 01:00:29;;;;;;;11.67;10.50;;;9.40;99.90;;;;;;5066898;28;20462;-84
2022/06/03 01:03:13;;;;;;;8.33;7.50;;;9.50;99.90;;;;;;5066981;28;20475;-84
2022/06/03 01:06:11;;;;;;;7.80;6.50;;;9.50;99.90;;;;;;5067114;28;20454;-84
2022/06/03 01:09:00;;;;;;;7.13;4.80;;;9.50;97.90;;;;;;5066938;28;20463;-83
2022/06/03 01:11:48;;;;;;;6.97;5.13;;;9.40;96.30;;;;;;5067108;28;20981;-83
2022/06/03 01:14:27;;;;;;;9.70;6.17;;;9.40;97.80;;;;;;5066989;28;20438;-84
2022/06/03 01:17:07;;;;;;;8.30;5.90;;;9.30;97.80;;;;;;5066230;28;20473;-84
2022/06/03 01:19:59;;;;;;;8.90;6.20;;;9.10;99.70;;;;;;5065682;28;20435;-83
2022/06/03 01:22:57;;;;;;;9.53;6.70;;;9.00;99.90;;;;;;5066437;28;20459;-83
2022/06/03 01:26:07;;;;;;;8.37;7.43;;;9.00;99.90;;;;;;5066728;28;20494;-83
2022/06/03 01:29:05;;;;;;;10.00;9.17;;;9.00;99.90;;;;;;5065997;28;21025;-84
2022/06/03 01:32:03;;;;;;;11.90;10.80;;;9.00;99.90;;;;;;5066839;28;20942;-83
2022/06/03 01:34:41;;;;;;;13.20;11.90;;;9.00;99.90;;;;;;5066373;28;20837;-83
2022/06/03 01:37:19;;;;;;;13.17;12.13;;;9.00;99.90;;;;;;5066437;28;20530;-83
2022/06/03 01:40:02;;;;;;;11.20;10.20;;;9.10;99.90;;;;;;5067883;28;20443;-83
2022/06/03 01:42:55;;;;;;;10.40;9.43;;;9.20;99.90;;;;;;5067370;28;20459;-83
2022/06/03 01:45:47;;;;;;;17.77;16.47;;;9.10;99.90;;;;;;5054065;28;20462;-84
2022/06/03 01:48:37;;;;;;;13.37;12.37;;;8.90;99.90;;;;;;5067042;28;20471;-83
2022/06/03 01:51:27;;;;;;;12.67;11.67;;;9.00;99.90;;;;;;5067004;28;20834;-84
2022/06/03 01:54:38;;;;;;;13.00;12.00;;;9.00;99.90;;;;;;5067628;28;20457;-83
2022/06/03 01:57:33;;;;;;;9.70;8.70;;;8.80;99.90;;;;;;5059577;28;20478;-84
2022/06/03 02:00:29;;;;;;;9.80;7.87;;;8.60;99.90;;;;;;5066848;28;20439;-84
2022/06/03 02:03:35;;;;;;;9.87;8.97;;;8.40;99.90;;;;;;5062861;28;20481;-85
2022/06/03 02:07:02;;;;;;;12.87;11.87;;;8.40;99.90;;;;;;5063697;28;20482;-84
2022/06/03 02:10:26;;;;;;;16.60;15.50;;;8.30;99.90;;;;;;5065681;28;20550;-82
2022/06/03 02:13:37;;;;;;;27.20;25.70;;;8.20;99.90;;;;;;5044412;28;20447;-82
2022/06/03 02:16:40;;;;;;;62.47;59.53;;;8.00;99.90;;;;;;5066377;28;20443;-82
2022/06/03 02:19:32;;;;;;;70.13;66.97;;;8.00;99.90;;;;;;5055186;28;20534;-82
2022/06/03 02:22:42;;;;;;;60.13;57.67;;;7.90;99.90;;;;;;5066109;28;20458;-83
2022/06/03 02:25:47;;;;;;;80.43;77.23;;;7.70;99.90;;;;;;5066640;28;20507;-83
2022/06/03 02:28:51;;;;;;;78.27;75.17;;;7.60;99.90;;;;;;5065053;28;20475;-83
2022/06/03 02:31:36;;;;;;;53.77;51.47;;;7.60;99.90;;;;;;5065645;28;20439;-83
2022/06/03 02:34:23;;;;;;;66.17;63.37;;;7.50;99.90;;;;;;5065912;28;20427;-83
2022/06/03 02:37:25;;;;;;;79.63;76.47;;;7.50;99.90;;;;;;5065045;28;20532;-83
2022/06/03 02:40:37;;;;;;;153.73;148.43;;;7.40;99.90;;;;;;5031521;28;20482;-83
2022/06/03 02:43:37;;;;;;;200.60;193.50;;;7.40;99.90;;;;;;5065292;28;20467;-83
2022/06/03 02:46:38;;;;;;;183.07;176.60;;;7.50;99.90;;;;;;5064024;28;20466;-83
2022/06/03 02:49:43;;;;;;;194.87;187.67;;;7.60;99.90;;;;;;5064171;28;20446;-83
2022/06/03 02:52:36;;;;;;;243.97;235.20;;;7.60;99.90;;;;;;5045400;28;20822;-83
2022/06/03 02:55:35;;;;;;;217.07;209.37;;;7.60;99.90;;;;;;5064190;28;20509;-81
2022/06/03 02:58:38;;;;;;;226.40;218.33;;;7.70;99.90;;;;;;5063367;28;20471;-82
2022/06/03 03:01:26;;;;;;;220.37;212.40;;;7.50;99.90;;;;;;5063619;28;20470;-83
2022/06/03 03:04:22;;;;;;;229.60;221.53;;;7.50;99.90;;;;;;5063293;28;20459;-83
2022/06/03 03:07:21;;;;;;;196.67;189.70;;;7.50;99.90;;;;;;5063977;28;20464;-82
2022/06/03 03:10:07;;;;;;;222.73;214.87;;;7.50;99.90;;;;;;5062215;28;20452;-83
2022/06/03 03:12:56;;;;;;;235.60;227.43;;;7.50;99.90;;;;;;5062462;28;20436;-82
2022/06/03 03:15:38;;;;;;;254.87;246.20;;;7.50;99.90;;;;;;5063253;28;20436;-83
2022/06/03 03:18:35;;;;;;;246.93;238.37;;;7.40;99.90;;;;;;5063474;28;20482;-81
2022/06/03 03:21:35;;;;;;;348.23;335.63;;;7.40;99.90;;;;;;5063282;28;20428;-83
2022/06/03 03:24:27;;;;;;;360.07;346.87;;;7.40;99.90;;;;;;5055683;28;20497;-83
2022/06/03 03:27:06;;;;;;;332.67;319.80;;;7.50;99.90;;;;;;5063191;28;20497;-82
2022/06/03 03:30:03;;;;;;;343.00;330.10;;;7.30;99.90;;;;;;5062169;28;20944;-83
2022/06/03 03:32:43;;;;;;;374.60;360.70;;;7.30;99.90;;;;;;5062579;28;20431;-83
2022/06/03 03:35:30;;;;;;;398.67;383.57;;;7.20;99.90;;;;;;5062853;28;20458;-83
2022/06/03 03:38:40;;;;;;;445.67;428.07;;;7.10;99.90;;;;;;5062388;28;20475;-83
2022/06/03 03:41:54;;;;;;;447.97;430.47;;;7.10;99.90;;;;;;5063237;28;20518;-83
2022/06/03 03:44:43;;;;;;;449.17;431.37;;;7.10;99.90;;;;;;5063356;28;20479;-83
2022/06/03 03:47:54;;;;;;;461.13;442.77;;;7.00;99.90;;;;;;5062914;28;20479;-83
2022/06/03 03:50:46;;;;;;;410.77;394.57;;;7.00;99.90;;;;;;5062723;28;20523;-83
2022/06/03 03:53:43;;;;;;;337.03;323.87;;;7.10;99.90;;;;;;5062860;28;20447;-83
2022/06/03 03:56:50;;;;;;;335.90;323.20;;;7.00;99.90;;;;;;5062143;28;20455;-81
2022/06/03 04:00:11;;;;;;;343.97;330.40;;;7.10;99.90;;;;;;5061367;28;20439;-83
2022/06/03 04:03:17;;;;;;;326.40;313.37;;;7.20;99.90;;;;;;5054278;28;20502;-83
2022/06/03 04:06:29;;;;;;;294.47;282.50;;;7.20;99.90;;;;;;5062075;28;20435;-83
2022/06/03 04:09:27;;;;;;;292.60;280.97;;;7.30;99.90;;;;;;5061059;28;20451;-83
2022/06/03 04:12:32;;;;;;;347.33;332.87;;;7.40;99.90;;;;;;5064374;28;20438;-84
2022/06/03 04:15:45;;;;;;;410.10;393.20;;;7.40;99.90;;;;;;5030355;28;20454;-83
2022/06/03 04:18:36;;;;;;;518.33;495.23;;;7.50;99.90;;;;;;5061886;28;20810;-81
2022/06/03 04:21:47;;;;;;;512.00;489.10;;;7.60;99.90;;;;;;5059768;28;20459;-83
2022/06/03 04:24:49;;;;;;;512.67;489.47;;;7.70;99.90;;;;;;4980717;28;20485;-83
2022/06/03 04:27:41;;;;;;;528.83;504.43;;;7.80;99.90;;;;;;4982458;28;21061;-82
2022/06/03 04:30:50;;;;;;;538.10;513.27;;;7.80;99.90;;;;;;5050796;28;20479;-82
2022/06/03 04:34:05;;;;;;;521.50;497.70;;;8.00;99.90;;;;;;5064049;28;20438;-82
2022/06/03 04:37:17;;;;;;;534.80;511.23;;;8.10;99.90;;;;;;5063714;28;20436;-83
2022/06/03 04:40:41;;;;;;;571.57;545.37;;;8.20;99.90;;;;;;5062010;28;20501;-83
2022/06/03 04:43:46;;;;;;;568.20;542.03;;;8.20;99.90;;;;;;5042439;28;20479;-83
2022/06/03 04:47:01;;;;;;;512.93;490.17;;;8.40;99.90;;;;;;5065462;28;20443;-83
2022/06/03 04:50:25;;;;;;;470.73;450.43;;;8.50;99.90;;;;;;5025718;28;20945;-82
2022/06/03 04:53:29;;;;;;;571.77;544.97;;;8.60;99.90;;;;;;5061818;28;20518;-81
2022/06/03 04:56:28;;;;;;;614.83;584.67;;;8.80;99.90;;;;;;5061816;28;20450;-82
2022/06/03 05:00:06;;;;;;;672.77;636.80;;;9.20;99.90;;;;;;5062984;28;20574;-82
2022/06/03 05:03:22;;;;;;;748.50;704.53;;;9.30;99.90;;;;;;5063708;28;20430;-82
2022/06/03 05:06:26;;;;;;;704.37;666.00;;;9.50;99.90;;;;;;5064786;28;20515;-82
2022/06/03 05:09:27;;;;;;;647.00;613.83;;;9.80;99.90;;;;;;5037700;28;20534;-82
2022/06/03 05:12:28;;;;;;;551.17;526.17;;;9.90;99.90;;;;;;5064576;28;20454;-83
2022/06/03 05:15:34;;;;;;;523.37;499.70;;;10.10;99.90;;;;;;5064238;28;20478;-84
2022/06/03 05:18:34;;;;;;;727.70;685.30;;;10.20;99.90;;;;;;5042953;28;20471;-83
2022/06/03 05:21:38;;;;;;;655.20;619.97;;;10.70;99.90;;;;;;5062058;28;20518;-84
2022/06/03 05:24:38;;;;;;;34.30;32.47;;;11.60;99.90;;;;;;5061485;28;21133;-83
2022/06/03 05:27:33;;;;;;;9.57;5.93;;;12.60;99.90;;;;;;5065185;28;20510;-83
2022/06/03 05:30:47;;;;;;;7.50;4.30;;;13.90;93.80;;;;;;5063715;28;20495;-83
2022/06/03 05:33:50;;;;;;;5.70;3.90;;;15.10;79.10;;;;;;5032291;28;20452;-85
2022/06/03 05:36:43;;;;;;;6.57;3.90;;;16.20;66.60;;;;;;5068239;28;20471;-82
2022/06/03 05:39:49;;;;;;;5.60;3.80;;;17.00;54.20;;;;;;5058497;28;20479;-87
2022/06/03 05:42:44;;;;;;;5.87;3.53;;;17.80;46.80;;;;;;5041873;28;20444;-84
2022/06/03 05:45:44;;;;;;;5.40;2.90;;;18.20;42.70;;;;;;5067526;28;20451;-84
2022/06/03 05:48:17;;;;;;;5.10;3.00;;;18.70;42.20;;;;;;5065749;28;20456;-82
2022/06/03 05:50:51;;;;;;;5.40;2.70;;;19.40;36.10;;;;;;5064939;28;20533;-86
2022/06/03 05:53:31;;;;;;;5.10;3.07;;;19.60;31.40;;;;;;5066299;28;20475;-81
2022/06/03 05:56:15;;;;;;;4.93;2.70;;;19.80;30.90;;;;;;5065766;28;20955;-84
2022/06/03 05:58:49;;;;;;;5.83;2.90;;;20.10;30.00;;;;;;5064432;28;20550;-84
2022/06/03 06:01:37;;;;;;;4.80;2.50;;;20.10;27.00;;;;;;5061895;28;20836;-85
2022/06/03 06:04:14;;;;;;;4.60;2.30;;;20.50;25.50;;;;;;5059412;28;20961;-83
2022/06/03 06:06:55;;;;;;;4.90;2.27;;;20.60;23.30;;;;;;5059539;28;20484;-85
2022/06/03 06:09:34;;;;;;;5.20;2.20;;;20.80;20.30;;;;;;5060068;28;20834;-84
2022/06/03 06:12:20;;;;;;;4.53;2.27;;;20.70;20.20;;;;;;5058661;28;20830;-85
2022/06/03 06:15:02;;;;;;;5.03;2.43;;;20.80;20.30;;;;;;5060758;28;20476;-85
2022/06/03 06:17:43;;;;;;;4.83;2.40;;;20.80;17.90;;;;;;5059588;28;20531;-85
2022/06/03 06:20:19;;;;;;;5.50;2.10;;;20.90;19.40;;;;;;5058154;28;20957;-85
2022/06/03 06:22:48;;;;;;;6.10;2.70;;;21.10;17.30;;;;;;5059309;28;20478;-85
2022/06/03 06:25:22;;;;;;;6.47;3.10;;;21.00;14.80;;;;;;5057922;28;20190;-85
2022/06/03 06:28:19;;;;;;;6.20;3.07;;;21.40;14.70;;;;;;5057910;28;20470;-85
2022/06/03 06:31:14;;;;;;;6.47;2.97;;;21.50;15.20;;;;;;5057483;28;20438;-83
2022/06/03 06:34:05;;;;;;;5.50;2.97;;;21.70;13.50;;;;;;5055435;28;20527;-85
2022/06/03 06:37:01;;;;;;;5.63;2.83;;;21.80;11.20;;;;;;5056582;28;20429;-85
2022/06/03 06:40:08;;;;;;;5.20;2.93;;;21.80;10.70;;;;;;5056844;28;20463;-85
2022/06/03 06:42:46;;;;;;;6.13;2.90;;;21.90;10.70;;;;;;5057950;28;20533;-86
2022/06/03 06:45:27;;;;;;;6.27;3.00;;;22.10;9.50;;;;;;5056916;28;20948;-86
2022/06/03 06:48:03;;;;;;;5.50;2.67;;;22.10;8.50;;;;;;5057453;28;20505;-85
2022/06/03 06:50:38;;;;;;;4.57;2.30;;;22.20;11.10;;;;;;5056619;28;20458;-86
2022/06/03 06:53:11;;;;;;;6.83;3.03;;;22.00;8.00;;;;;;5057380;28;20452;-85
2022/06/03 06:55:52;;;;;;;8.63;2.60;;;22.20;9.90;;;;;;5057494;28;20440;-86
2022/06/03 06:58:42;;;;;;;6.40;2.87;;;22.00;8.60;;;;;;5056007;28;20442;-89
2022/06/03 07:01:10;;;;;;;5.00;2.60;;;21.90;10.20;;;;;;5060385;28;20474;-82
2022/06/03 07:03:55;;;;;;;6.70;2.43;;;22.20;11.00;;;;;;5056642;28;20453;-83
2022/06/03 07:06:33;;;;;;;9.47;3.07;;;22.20;8.70;;;;;;5056343;28;20459;-82
2022/06/03 07:09:20;;;;;;;6.27;2.47;;;22.20;7.80;;;;;;5055968;28;20458;-83
2022/06/03 07:11:55;;;;;;;5.77;2.47;;;22.40;7.20;;;;;;5056469;28;20441;-83
2022/06/03 07:14:29;;;;;;;5.60;3.13;;;22.60;9.70;;;;;;5056356;28;20519;-82
2022/06/03 07:19:58;;;;;;;5.93;2.90;;;22.90;6.60;;;;;;5055246;28;20483;-81
2022/06/03 07:22:30;;;;;;;5.80;1.97;;;23.30;6.90;;;;;;5055725;28;20771;-83
2022/06/03 07:25:03;;;;;;;6.50;2.57;;;23.60;4.50;;;;;;5055738;28;20457;-82
2022/06/03 07:27:39;;;;;;;5.07;2.50;;;23.60;5.40;;;;;;5055501;28;20471;-81
2022/06/03 07:30:11;;;;;;;5.57;2.50;;;23.30;5.70;;;;;;5054897;28;20454;-82
2022/06/03 07:32:41;;;;;;;5.33;2.77;;;23.20;4.20;;;;;;5054928;28;20458;-82
2022/06/03 07:35:19;;;;;;;5.30;2.20;;;23.50;3.40;;;;;;5055466;28;20475;-82
2022/06/03 07:37:52;;;;;;;5.80;2.33;;;23.70;2.40;;;;;;5072289;22;20514;-84
2022/06/03 07:40:23;;;;;;;5.40;2.50;;;23.80;2.50;;;;;;5037893;28;20802;-84
2022/06/03 07:42:57;;;;;;;5.67;2.30;;;24.00;2.40;;;;;;5038103;28;20665;-85
2022/06/03 07:45:38;;;;;;;4.83;2.27;;;23.90;6.00;;;;;;5037710;28;20423;-85
2022/06/03 07:48:08;;;;;;;5.63;2.73;;;23.70;1.00;;;;;;5037546;28;20472;-84
2022/06/03 07:50:45;;;;;;;5.30;2.17;;;23.70;3.50;;;;;;5038187;28;20539;-85
2022/06/03 07:53:17;;;;;;;4.90;2.30;;;23.70;1.80;;;;;;5037507;28;20455;-85
2022/06/03 07:55:51;;;;;;;5.50;2.50;;;24.30;1.00;;;;;;5037361;28;20494;-86
2022/06/03 07:58:22;;;;;;;5.67;2.10;;;24.10;1.20;;;;;;5037090;28;20475;-85
2022/06/03 08:00:49;;;;;;;6.30;2.30;;;23.70;2.00;;;;;;5038052;28;20960;-86
2022/06/03 08:03:22;;;;;;;5.97;2.20;;;24.10;1.00;;;;;;5036570;28;20452;-85
2022/06/03 08:05:56;;;;;;;4.70;2.30;;;24.30;1.00;;;;;;5040352;28;20452;-84
2022/06/03 08:11:13;;;;;;;11.20;2.20;;;24.80;1.00;;;;;;5038176;28;20464;-85
2022/06/03 08:13:49;;;;;;;4.57;1.77;;;24.70;1.00;;;;;;5037009;28;20466;-84
2022/06/03 08:16:33;;;;;;;4.90;2.43;;;24.90;1.00;;;;;;5035949;28;20448;-83
2022/06/03 08:19:06;;;;;;;4.00;1.40;;;25.20;3.70;;;;;;5038986;28;20457;-85
2022/06/03 08:21:39;;;;;;;7.20;2.33;;;25.00;1.00;;;;;;5040292;28;20923;-83
2022/06/03 08:24:08;;;;;;;4.80;2.00;;;25.30;1.00;;;;;;5039412;28;20478;-84
2022/06/03 08:26:36;;;;;;;4.30;1.90;;;25.70;1.00;;;;;;5040050;28;20456;-83
2022/06/03 08:29:12;;;;;;;5.37;2.10;;;25.20;1.00;;;;;;5038872;28;20503;-82
2022/06/03 08:31:39;;;;;;;5.00;1.50;;;25.30;1.00;;;;;;5040368;28;20559;-83
2022/06/03 08:34:11;;;;;;;4.23;1.70;;;25.40;1.00;;;;;;5036739;28;20480;-82
2022/06/03 08:36:41;;;;;;;5.00;2.10;;;25.60;1.00;;;;;;5034291;28;20837;-84
2022/06/03 08:39:15;;;;;;;5.30;1.98;;;25.20;1.00;;;;;;5041198;28;20453;-86
2022/06/03 08:41:53;;;;;;;4.90;2.00;;;25.80;1.00;;;;;;5044004;28;20265;-86
2022/06/03 08:44:46;;;;;;;7.83;2.43;;;25.20;1.00;;;;;;5042668;28;20483;-85
2022/06/03 08:47:18;;;;;;;6.40;2.77;;;25.20;1.00;;;;;;5043628;28;20470;-86
2022/06/03 08:50:01;;;;;;;5.20;2.63;;;25.80;1.00;;;;;;5042252;28;20452;-85
2022/06/03 08:52:44;;;;;;;6.00;2.50;;;25.60;1.00;;;;;;5043411;28;20452;-85
2022/06/03 08:55:30;;;;;;;6.07;2.67;;;25.80;1.00;;;;;;5049831;28;20605;-86
2022/06/03 08:58:00;;;;;;;5.80;2.20;;;25.30;1.00;;;;;;5052336;28;20482;-86
2022/06/03 09:00:32;;;;;;;6.73;3.30;;;25.00;1.00;;;;;;5047122;28;20478;-85
2022/06/03 09:03:04;;;;;;;5.20;2.30;;;25.40;1.00;;;;;;5041375;28;20457;-85
2022/06/03 09:05:37;;;;;;;6.65;2.25;;;25.20;1.00;;;;;;5040791;28;20462;-82
2022/06/03 09:08:16;;;;;;;4.70;2.10;;;25.00;1.00;;;;;;5043610;28;20218;-87
2022/06/03 09:10:51;;;;;;;5.23;1.70;;;25.40;1.00;;;;;;5043207;28;20457;-86
2022/06/03 09:13:25;;;;;;;4.77;1.93;;;26.60;1.00;;;;;;5040883;28;20441;-87
2022/06/03 09:15:53;;;;;;;5.83;2.20;;;27.70;1.00;;;;;;5040192;28;20552;-86
2022/06/03 09:18:26;;;;;;;4.17;1.50;;;27.80;1.00;;;;;;5040080;28;20446;-86
2022/06/03 09:20:57;;;;;;;4.60;1.73;;;27.70;1.00;;;;;;5040655;28;20448;-86
2022/06/03 09:23:28;;;;;;;7.30;1.83;;;27.50;1.00;;;;;;5042626;28;20455;-87
2022/06/03 09:25:57;;;;;;;9.00;1.40;;;27.20;1.00;;;;;;5043454;28;20825;-86
2022/06/03 09:28:27;;;;;;;6.70;2.30;;;26.70;1.00;;;;;;5044609;28;20468;-86
2022/06/03 09:30:55;;;;;;;4.20;1.00;;;26.20;1.00;;;;;;5045059;28;20448;-86
2022/06/03 09:33:25;;;;;;;5.43;1.37;;;26.00;1.00;;;;;;5045579;28;20543;-86
2022/06/03 09:35:55;;;;;;;4.60;1.50;;;25.90;1.00;;;;;;5045861;28;20534;-86
2022/06/03 09:38:31;;;;;;;4.30;1.40;;;25.70;1.00;;;;;;5043307;28;20454;-86
2022/06/03 09:41:00;;;;;;;4.20;1.50;;;25.60;1.00;;;;;;5045876;28;20459;-86
2022/06/03 09:43:33;;;;;;;4.40;1.53;;;25.70;1.00;;;;;;5045446;28;20452;-87
2022/06/03 09:46:02;;;;;;;4.00;1.10;;;26.30;1.00;;;;;;5043660;28;20451;-86
2022/06/03 09:48:31;;;;;;;4.40;1.40;;;27.50;1.00;;;;;;5040750;28;21205;-86
2022/06/03 09:51:04;;;;;;;4.30;1.40;;;28.80;1.00;;;;;;5042216;28;20453;-86
2022/06/03 09:53:36;;;;;;;4.73;1.50;;;28.80;1.00;;;;;;5039571;28;20434;-86
2022/06/03 09:56:07;;;;;;;5.73;1.50;;;29.50;1.00;;;;;;5037909;28;20865;-86
2022/06/03 09:58:35;;;;;;;4.87;1.70;;;29.20;1.00;;;;;;5038587;28;20455;-87
2022/06/03 10:01:03;;;;;;;5.03;1.50;;;29.40;1.00;;;;;;5038816;28;20464;-87
2022/06/03 10:03:32;;;;;;;6.90;1.70;;;29.60;1.00;;;;;;5038274;28;20456;-87
2022/06/03 10:06:00;;;;;;;5.60;1.73;;;29.60;1.00;;;;;;5037892;28;20448;-87
2022/06/03 10:12:48;;;;;;;4.50;1.60;;;30.20;1.00;;;;;;5035890;28;20903;-87
2022/06/03 10:14:03;;;;;;;4.23;1.57;;;30.60;1.00;;;;;;5036785;28;20451;-86
2022/06/03 10:16:30;;;;;;;4.40;1.57;;;30.20;1.00;;;;;;5036424;28;20487;-86
2022/06/03 10:18:57;;;;;;;5.63;1.80;;;29.90;1.00;;;;;;5038937;28;20480;-83
2022/06/03 10:21:31;;;;;;;5.47;1.53;;;30.10;1.00;;;;;;5040661;28;20923;-85
2022/06/03 10:24:48;;;;;;;5.80;1.80;;;29.70;1.00;;;;;;5037360;28;20461;-87
2022/06/03 10:27:20;;;;;;;4.70;1.57;;;30.60;1.00;;;;;;5037565;28;20559;-86
2022/06/03 10:29:50;;;;;;;5.37;1.90;;;30.20;1.00;;;;;;5042571;28;20517;-86
2022/06/03 10:32:19;;;;;;;4.90;1.90;;;31.50;1.00;;;;;;5043991;28;20448;-85
2022/06/03 10:34:47;;;;;;;6.17;1.97;;;30.80;1.00;;;;;;5056256;28;20551;-87
2022/06/03 10:37:18;;;;;;;6.05;1.80;;;31.60;1.00;;;;;;5052484;28;20492;-85
2022/06/03 10:39:45;;;;;;;4.40;2.00;;;31.30;1.00;;;;;;5040533;28;20201;-86
2022/06/03 10:42:16;;;;;;;6.30;1.70;;;30.80;1.00;;;;;;5034354;28;20456;-86
2022/06/03 10:44:46;;;;;;;4.70;1.73;;;30.70;1.00;;;;;;5033692;28;20454;-86
2022/06/03 10:47:17;;;;;;;5.87;2.00;;;31.70;1.00;;;;;;5033792;28;20449;-87
2022/06/03 10:49:52;;;;;;;7.70;1.50;;;30.40;1.00;;;;;;5038996;28;20456;-85
2022/06/03 11:01:08;;;;;;;6.30;1.70;;;32.20;1.00;;;;;;5038261;28;20554;-84
2022/06/03 11:03:39;;;;;;;3.87;1.20;;;33.30;1.00;;;;;;5037863;28;20447;-83
2022/06/03 11:06:07;;;;;;;5.20;1.97;;;32.80;1.00;;;;;;5038162;28;20462;-83
2022/06/03 11:08:51;;;;;;;4.07;1.50;;;31.90;1.00;;;;;;5037413;28;20471;-83
2022/06/03 11:11:32;;;;;;;4.10;1.57;;;30.20;1.00;;;;;;5038120;28;20463;-83
2022/06/03 11:14:29;;;;;;;5.33;2.20;;;30.20;1.00;;;;;;5038273;28;20442;-84
2022/06/03 11:17:01;;;;;;;5.57;1.80;;;30.00;1.00;;;;;;5035877;28;20713;-83
2022/06/03 11:19:32;;;;;;;5.23;2.07;;;31.10;1.00;;;;;;5035909;28;20434;-82
2022/06/03 11:22:24;;;;;;;5.13;2.13;;;32.60;1.00;;;;;;5036109;28;20480;-83
2022/06/03 11:25:03;;;;;;;5.60;2.10;;;32.40;1.00;;;;;;5036271;28;20565;-82
2022/06/03 11:27:47;;;;;;;4.70;1.80;;;32.60;1.00;;;;;;5036318;28;20849;-83
2022/06/03 11:30:20;;;;;;;5.07;1.90;;;32.70;1.00;;;;;;5035788;28;20459;-83
2022/06/03 11:32:52;;;;;;;4.47;1.83;;;31.90;1.00;;;;;;5038074;28;20456;-84
2022/06/03 11:35:25;;;;;;;4.50;1.70;;;31.10;1.00;;;;;;5037447;28;20423;-84
2022/06/03 11:37:54;;;;;;;4.80;1.97;;;31.80;1.00;;;;;;5036542;28;20488;-85
2022/06/03 11:40:25;;;;;;;6.10;2.00;;;32.10;1.00;;;;;;5036167;28;20442;-86
2022/06/03 11:42:56;;;;;;;5.80;2.20;;;31.70;1.00;;;;;;5039847;28;20200;-86
2022/06/03 11:45:33;;;;;;;4.60;1.60;;;31.40;1.00;;;;;;5040327;28;20454;-85
2022/06/03 11:48:05;;;;;;;4.53;1.80;;;30.80;1.00;;;;;;5043954;28;20479;-86
2022/06/03 11:50:34;;;;;;;5.90;2.20;;;31.20;1.00;;;;;;5044216;28;20430;-86
2022/06/03 11:53:01;;;;;;;4.40;1.80;;;31.00;1.00;;;;;;5043784;28;20429;-86
2022/06/03 11:55:32;;;;;;;5.63;1.63;;;30.60;1.00;;;;;;5041992;28;20751;-85
2022/06/03 11:58:05;;;;;;;5.68;2.20;;;31.20;1.00;;;;;;5040863;28;20472;-86
2022/06/03 12:00:38;;;;;;;5.87;1.80;;;31.60;1.00;;;;;;5039965;28;20216;-86
2022/06/03 12:03:22;;;;;;;5.20;1.90;;;31.00;1.00;;;;;;5037198;28;20458;-83
2022/06/03 12:05:56;;;;;;;6.00;2.07;;;31.00;1.00;;;;;;5037917;28;20713;-83
2022/06/03 12:08:27;;;;;;;5.00;1.90;;;29.60;1.00;;;;;;5035752;28;20529;-83
2022/06/03 12:10:59;;;;;;;4.93;1.60;;;29.00;1.00;;;;;;5034867;28;20538;-83
2022/06/03 12:13:29;;;;;;;4.97;1.97;;;29.20;1.00;;;;;;5036836;28;20456;-84
2022/06/03 12:16:04;;;;;;;4.67;1.83;;;29.40;1.00;;;;;;5036925;28;20429;-83
2022/06/03 12:19:01;;;;;;;5.27;2.07;;;29.40;1.00;;;;;;5036023;28;20528;-83
2022/06/03 12:21:53;;;;;;;4.40;1.70;;;29.40;1.00;;;;;;5037341;28;20447;-84
2022/06/03 12:24:42;;;;;;;5.70;2.20;;;29.30;1.00;;;;;;5037895;28;20518;-84
2022/06/03 12:27:20;;;;;;;7.40;2.37;;;28.80;1.00;;;;;;5037151;28;20468;-84
2022/06/03 12:29:56;;;;;;;4.50;1.80;;;28.60;1.00;;;;;;5037607;28;20456;-83
2022/06/03 12:32:28;;;;;;;5.43;2.27;;;27.90;1.00;;;;;;5041430;28;20452;-83
2022/06/03 12:35:39;;;;;;;4.43;1.63;;;27.80;1.00;;;;;;5040883;28;20459;-84
2022/06/03 12:38:51;;;;;;;16.00;2.50;;;27.50;1.00;;;;;;5037372;28;20490;-83
2022/06/03 12:41:55;;;;;;;4.53;1.50;;;28.40;1.00;;;;;;4959360;29;20548;-84
2022/06/03 12:44:52;;;;;;;5.20;2.00;;;28.30;1.00;;;;;;5040468;28;20776;-84
2022/06/03 12:47:44;;;;;;;5.27;2.20;;;29.20;1.00;;;;;;5040741;28;20442;-83
2022/06/03 12:50:32;;;;;;;6.10;2.20;;;29.70;1.00;;;;;;5040649;28;20448;-83
2022/06/03 12:53:19;;;;;;;7.80;2.53;;;28.70;1.00;;;;;;5040577;28;20505;-84
2022/06/03 12:55:54;;;;;;;4.80;1.67;;;28.40;1.00;;;;;;5038918;28;20498;-85
2022/06/03 12:58:50;;;;;;;4.40;1.83;;;27.80;1.00;;;;;;5040643;28;20442;-87
2022/06/03 13:01:33;;;;;;;6.10;2.30;;;28.30;1.00;;;;;;5044335;28;20478;-87
2022/06/03 13:04:38;;;;;;;4.87;2.00;;;29.50;1.00;;;;;;5044170;28;20468;-87
2022/06/03 13:07:30;;;;;;;5.33;2.13;;;30.80;1.00;;;;;;5042988;28;20491;-88
2022/06/03 13:10:13;;;;;;;4.70;1.87;;;31.70;1.00;;;;;;5040738;28;20426;-87
2022/06/03 13:12:50;;;;;;;5.77;2.00;;;31.60;1.00;;;;;;5042473;28;20454;-87
2022/06/03 13:15:49;;;;;;;4.97;2.07;;;31.30;1.00;;;;;;5043185;28;20455;-87
2022/06/03 13:18:40;;;;;;;4.43;1.73;;;31.10;1.00;;;;;;5042377;28;20454;-87
2022/06/03 13:21:18;;;;;;;7.57;2.20;;;30.70;1.00;;;;;;5044504;28;20836;-87
2022/06/03 13:24:01;;;;;;;4.50;1.80;;;31.00;1.00;;;;;;5041509;28;20827;-87
2022/06/03 13:27:05;;;;;;;4.87;2.00;;;30.80;1.00;;;;;;5041440;28;20484;-87
2022/06/03 13:30:12;;;;;;;4.37;1.63;;;30.50;1.00;;;;;;5038232;28;20530;-87
2022/06/03 13:32:58;;;;;;;5.10;2.43;;;31.90;1.00;;;;;;5037434;28;20456;-87
2022/06/03 13:35:28;;;;;;;4.00;1.60;;;33.60;1.00;;;;;;5037607;28;20437;-87
2022/06/03 13:38:17;;;;;;;5.10;2.00;;;33.80;1.00;;;;;;5067063;22;20472;-83
2022/06/03 13:43:26;;;;;;;4.47;2.00;;;32.40;1.00;;;;;;5063260;28;20447;-83
2022/06/03 13:46:07;;;;;;;5.53;2.50;;;31.70;1.00;;;;;;5064702;28;20471;-84
2022/06/03 13:48:58;;;;;;;4.80;2.43;;;32.00;1.00;;;;;;5075062;28;20953;-84
2022/06/03 13:51:33;;;;;;;5.27;1.90;;;32.90;1.00;;;;;;5084362;28;20459;-83
2022/06/03 13:54:06;;;;;;;5.13;1.70;;;31.90;1.00;;;;;;5083982;28;20446;-83
2022/06/03 13:56:33;;;;;;;5.30;2.10;;;31.30;1.00;;;;;;5084355;28;20411;-83
2022/06/03 13:59:04;;;;;;;4.97;2.00;;;30.90;1.00;;;;;;5083733;28;20437;-83
2022/06/03 14:01:34;;;;;;;4.47;1.70;;;30.60;1.00;;;;;;5083362;28;20599;-83
2022/06/03 14:04:05;;;;;;;11.50;2.20;;;31.10;1.00;;;;;;5080807;28;20925;-82
2022/06/03 14:06:39;;;;;;;7.20;2.23;;;30.60;1.00;;;;;;5079005;28;20456;-83
2022/06/03 14:09:19;;;;;;;4.60;2.17;;;31.00;1.00;;;;;;5081193;28;20801;-85
2022/06/03 14:11:48;;;;;;;5.10;2.10;;;31.30;1.00;;;;;;5079205;28;20436;-85
2022/06/03 14:14:24;;;;;;;5.77;2.17;;;31.00;1.00;;;;;;5080844;28;20542;-84
2022/06/03 14:16:56;;;;;;;5.13;2.30;;;31.30;1.00;;;;;;5082448;28;20456;-86
2022/06/03 14:19:33;;;;;;;4.60;1.93;;;30.80;1.00;;;;;;5076768;28;20961;-82
2022/06/03 14:22:03;;;;;;;4.80;2.20;;;30.00;1.00;;;;;;5078348;28;20424;-83
2022/06/03 14:24:33;;;;;;;7.27;2.00;;;30.80;1.00;;;;;;5078001;28;20511;-82
2022/06/03 14:27:05;;;;;;;4.70;2.00;;;30.90;1.00;;;;;;5078889;28;20830;-82
2022/06/03 14:29:36;;;;;;;5.27;2.20;;;31.00;1.00;;;;;;5077120;28;20485;-83
2022/06/03 14:32:08;;;;;;;7.47;2.60;;;31.70;1.00;;;;;;5079977;28;20433;-83
2022/06/03 14:34:41;;;;;;;6.60;2.07;;;31.30;1.00;;;;;;5082560;28;20529;-84
2022/06/03 14:37:14;;;;;;;4.80;1.90;;;31.20;1.00;;;;;;5080767;28;20456;-83